Time;durP1;ratioP1;P1;durP2;ratioP2;P2;SDS_P1;SDS_P2;PMS_P1;PMS_P2;Temp;Humidity;BMP_temperature;BMP_pressure;BME280_temperature;BME280_humidity;BME280_pressure;Samples;Min_cycle;Max_cycle;Signal;HPM_P1;HPM_P2
2023/06/27 00:02:03;;;;;;;3.80;3.00;;;;;;;14.56;83.76;99143.34;106681;1255;60544;-82
2023/06/27 00:04:31;;;;;;;3.60;3.10;;;;;;;14.50;84.04;99140.34;106629;1253;60453;-80
2023/06/27 00:06:59;;;;;;;4.20;3.30;;;;;;;14.46;84.31;99138.42;106825;1253;73006;-82
2023/06/27 00:09:26;;;;;;;3.80;3.10;;;;;;;14.42;84.19;99133.48;106951;1253;70236;-79
2023/06/27 00:11:54;;;;;;;3.40;3.10;;;;;;;14.44;83.94;99132.05;107999;1253;72569;-82
2023/06/27 00:14:21;;;;;;;5.60;3.50;;;;;;;14.45;83.87;99128.42;108213;1259;60431;-83
2023/06/27 00:16:50;;;;;;;5.60;3.80;;;;;;;14.42;83.90;99129.33;109298;1254;58765;-83
2023/06/27 00:19:17;;;;;;;4.50;3.60;;;;;;;14.36;84.04;99128.52;105999;1258;73791;-82
2023/06/27 00:21:45;;;;;;;4.30;3.40;;;;;;;14.33;84.15;99126.75;105934;1256;69425;-81
2023/06/27 00:24:13;;;;;;;3.60;3.30;;;;;;;14.38;84.01;99123.09;105813;1259;71460;-82
2023/06/27 00:26:41;;;;;;;6.00;3.50;;;;;;;14.44;83.52;99125.23;106038;1253;60489;-86
2023/06/27 00:29:08;;;;;;;4.10;3.70;;;;;;;14.39;83.84;99126.55;107298;1253;60525;-84
2023/06/27 00:31:36;;;;;;;4.20;3.80;;;;;;;14.35;84.26;99131.52;107190;1253;73011;-85
2023/06/27 00:34:06;;;;;;;4.90;4.00;;;;;;;14.33;84.02;99132.55;107064;1258;69614;-85
2023/06/27 00:36:34;;;;;;;3.60;3.30;;;;;;;14.39;83.89;99136.38;107206;1253;71826;-85
2023/06/27 00:39:01;;;;;;;3.90;3.40;;;;;;;14.42;83.89;99136.27;107967;1258;59860;-86
2023/06/27 00:41:29;;;;;;;5.50;4.00;;;;;;;14.37;83.83;99135.67;108045;1260;59271;-85
2023/06/27 00:43:57;;;;;;;4.20;3.50;;;;;;;14.29;83.88;99134.00;109261;1253;72608;-86
2023/06/27 00:46:36;;;;;;;5.10;3.70;;;;;;;14.24;84.15;99133.13;109224;1253;68726;-82
2023/06/27 00:49:06;;;;;;;4.00;3.30;;;;;;;14.31;84.13;99128.70;108326;1253;71150;-81
2023/06/27 00:51:34;;;;;;;7.50;3.90;;;;;;;14.32;83.96;99127.05;108204;1255;58804;-82
2023/06/27 00:54:01;;;;;;;6.60;4.30;;;;;;;14.28;84.31;99128.69;105790;1253;60484;-78
2023/06/27 00:56:28;;;;;;;4.70;4.20;;;;;;;14.23;84.36;99131.00;105880;1253;73943;-80
2023/06/27 00:58:57;;;;;;;4.80;4.30;;;;;;;14.17;84.41;99132.52;106059;1253;70515;-86
2023/06/27 01:01:25;;;;;;;3.60;3.30;;;;;;;14.09;84.57;99132.69;106075;1253;71402;-82
2023/06/27 01:03:52;;;;;;;4.20;3.80;;;;;;;14.11;84.49;99131.58;105797;1254;61630;-81
2023/06/27 01:07:10;;;;;;;5.40;4.50;;;;;;;14.12;84.49;99128.04;105729;1253;60462;-80
2023/06/27 01:09:48;;;;;;;5.20;4.70;;;;;;;14.03;84.95;99130.67;105852;1253;72802;-83
2023/06/27 01:12:25;;;;;;;6.00;4.70;;;;;;;13.94;85.11;99129.20;107429;1254;69659;-85
2023/06/27 01:14:52;;;;;;;4.80;4.30;;;;;;;13.87;85.30;99131.86;108957;1254;71511;-83
2023/06/27 01:17:20;;;;;;;7.00;3.70;;;;;;;13.90;85.32;99133.96;107282;1256;60448;-82
2023/06/27 01:19:49;;;;;;;5.20;4.70;;;;;;;13.90;85.28;99132.56;108672;1254;58986;-84
2023/06/27 01:22:29;;;;;;;5.90;4.30;;;;;;;13.79;85.62;99132.14;108985;1253;72577;-80
2023/06/27 01:24:57;;;;;;;7.10;4.90;;;;;;;13.68;86.11;99134.06;108969;1253;69417;-80
2023/06/27 01:27:24;;;;;;;5.10;4.10;;;;;;;13.61;86.30;99135.23;108025;1253;71420;-77
2023/06/27 01:29:51;;;;;;;5.40;3.70;;;;;;;13.65;86.59;99138.45;109119;1253;61233;-81
2023/06/27 01:32:34;;;;;;;4.60;4.20;;;;;;;13.63;86.47;99140.95;107657;1254;61250;-77
2023/06/27 01:35:26;;;;;;;5.60;4.70;;;;;;;13.54;86.82;99139.90;106468;1258;72872;-76
2023/06/27 01:37:56;;;;;;;5.50;4.50;;;;;;;13.42;87.17;99135.52;107108;1253;68784;-78
2023/06/27 01:40:24;;;;;;;8.10;4.90;;;;;;;13.34;87.76;99138.95;106763;1253;73592;-77
2023/06/27 01:42:57;;;;;;;4.80;4.30;;;;;;;13.41;87.81;99139.95;108349;1254;60402;-81
2023/06/27 01:45:27;;;;;;;4.70;4.30;;;;;;;13.50;87.63;99143.77;109142;1254;58809;-80
2023/06/27 01:47:55;;;;;;;5.30;4.70;;;;;;;13.51;87.69;99146.80;107795;1254;72658;-76
2023/06/27 01:50:22;;;;;;;5.70;4.70;;;;;;;13.50;87.70;99141.63;106493;1261;69383;-76
2023/06/27 01:52:50;;;;;;;5.10;4.60;;;;;;;13.47;87.72;99143.02;106320;1255;72980;-77
2023/06/27 01:55:19;;;;;;;5.80;4.60;;;;;;;13.54;87.41;99144.14;106174;1255;62833;-78
2023/06/27 01:57:49;;;;;;;5.70;5.10;;;;;;;13.58;87.38;99141.60;106225;1255;60414;-78
2023/06/27 02:00:18;;;;;;;5.30;4.80;;;;;;;13.56;87.39;99143.68;105869;1256;72970;-80
2023/06/27 02:02:47;;;;;;;6.90;5.00;;;;;;;13.49;87.43;99144.25;106006;1253;71245;-79
2023/06/27 02:05:15;;;;;;;6.90;5.20;;;;;;;13.41;87.56;99144.42;105779;1253;72688;-79
2023/06/27 02:07:43;;;;;;;5.30;4.80;;;;;;;13.43;87.60;99148.79;105813;1254;61415;-83
2023/06/27 02:10:10;;;;;;;5.80;5.20;;;;;;;13.49;87.85;99145.15;105908;1256;60359;-77
2023/06/27 02:12:39;;;;;;;5.80;5.20;;;;;;;13.48;87.81;99144.20;106102;1256;72818;-79
2023/06/27 02:15:07;;;;;;;6.40;5.40;;;;;;;13.44;88.01;99142.79;108364;1253;68721;-78
2023/06/27 02:17:34;;;;;;;5.20;4.70;;;;;;;13.41;87.87;99138.67;108150;1253;71202;-83
2023/06/27 02:20:03;;;;;;;5.50;4.60;;;;;;;13.47;87.86;99136.66;105777;1256;60652;-83
2023/06/27 02:22:33;;;;;;;5.10;4.70;;;;;;;13.53;87.69;99137.40;105815;1253;61293;-78
2023/06/27 02:25:01;;;;;;;5.70;4.90;;;;;;;13.51;88.00;99133.48;106292;1253;72986;-78
2023/06/27 02:27:28;;;;;;;5.30;4.90;;;;;;;13.49;88.31;99134.91;105723;1262;68871;-76
2023/06/27 02:29:56;;;;;;;4.80;4.30;;;;;;;13.51;88.29;99134.64;105684;1256;72618;-77
2023/06/27 02:32:23;;;;;;;4.50;4.10;;;;;;;13.62;88.02;99128.14;105661;1258;60778;-78
2023/06/27 02:34:51;;;;;;;7.80;4.30;;;;;;;13.69;87.64;99127.20;105768;1259;60327;-78
2023/06/27 02:37:18;;;;;;;6.00;4.80;;;;;;;13.67;87.79;99125.80;105723;1253;72547;-78
2023/06/27 02:39:46;;;;;;;5.90;5.10;;;;;;;13.65;87.85;99129.08;105885;1253;70431;-78
2023/06/27 02:42:13;;;;;;;6.80;4.50;;;;;;;13.65;87.99;99126.67;106218;1258;71727;-77
2023/06/27 02:44:41;;;;;;;6.40;4.50;;;;;;;13.74;87.76;99127.73;107734;1253;60503;-79
2023/06/27 02:47:08;;;;;;;4.90;4.40;;;;;;;13.83;87.58;99124.42;108031;1260;60943;-79
2023/06/27 02:49:36;;;;;;;5.20;4.70;;;;;;;13.84;87.71;99124.46;107077;1253;73859;-78
2023/06/27 02:52:03;;;;;;;6.20;5.60;;;;;;;13.84;87.57;99121.58;107125;1253;70662;-79
2023/06/27 02:54:31;;;;;;;7.20;5.20;;;;;;;13.86;87.59;99122.20;107455;1254;71400;-79
2023/06/27 02:56:58;;;;;;;6.10;5.40;;;;;;;13.92;87.01;99119.66;107870;1257;62673;-81
2023/06/27 02:59:26;;;;;;;7.00;6.20;;;;;;;13.97;87.09;99118.31;107530;1260;60344;-79
2023/06/27 03:01:54;;;;;;;7.10;4.90;;;;;;;13.99;87.44;99116.17;106892;1253;73951;-80
2023/06/27 03:04:22;;;;;;;6.60;5.60;;;;;;;13.98;87.24;99113.80;107301;1258;69013;-77
2023/06/27 03:06:50;;;;;;;5.80;4.90;;;;;;;13.98;87.37;99113.92;105775;1258;72790;-76
2023/06/27 03:09:18;;;;;;;6.60;5.70;;;;;;;14.09;87.27;99116.51;105694;1259;60511;-79
2023/06/27 03:11:46;;;;;;;7.40;5.10;;;;;;;14.20;87.12;99119.58;105917;1253;60560;-82
2023/06/27 03:14:18;;;;;;;6.90;5.10;;;;;;;14.23;87.21;99116.45;107369;1253;75675;-79
2023/06/27 03:16:47;;;;;;;7.00;5.60;;;;;;;14.22;86.69;99115.14;109043;1258;68686;-80
2023/06/27 03:19:14;;;;;;;6.40;5.50;;;;;;;14.19;86.94;99116.57;105956;1253;70685;-80
2023/06/27 03:21:47;;;;;;;5.20;4.70;;;;;;;14.30;86.74;99113.32;106620;1254;60866;-80
2023/06/27 03:24:14;;;;;;;6.20;4.40;;;;;;;14.37;86.29;99114.71;107299;1259;59317;-81
2023/06/27 03:26:46;;;;;;;6.30;5.10;;;;;;;14.35;86.44;99115.28;105902;1261;74193;-80
2023/06/27 03:29:13;;;;;;;8.50;5.60;;;;;;;14.34;86.55;99117.30;105857;1253;68881;-83
2023/06/27 03:31:41;;;;;;;6.00;4.90;;;;;;;14.32;86.55;99120.59;106078;1258;71521;-83
2023/06/27 03:34:09;;;;;;;8.60;6.40;;;;;;;14.38;86.25;99117.88;105981;1258;60647;-82
2023/06/27 03:36:36;;;;;;;6.10;4.60;;;;;;;14.42;86.10;99118.85;105974;1253;60517;-79
2023/06/27 03:39:05;;;;;;;5.20;4.70;;;;;;;14.42;86.17;99117.66;105789;1256;73971;-79
2023/06/27 03:41:32;;;;;;;5.80;5.20;;;;;;;14.44;86.43;99114.20;106083;1259;67910;-77
2023/06/27 03:44:00;;;;;;;6.10;4.50;;;;;;;14.49;86.29;99116.50;108060;1253;72952;-77
2023/06/27 03:46:29;;;;;;;7.20;4.90;;;;;;;14.64;86.05;99114.84;109325;1253;60518;-78
2023/06/27 03:48:58;;;;;;;4.70;4.20;;;;;;;14.78;85.30;99115.67;105892;1253;60874;-79
2023/06/27 03:51:26;;;;;;;4.50;4.10;;;;;;;14.80;84.56;99110.73;105721;1261;74109;-78
2023/06/27 03:53:53;;;;;;;6.00;5.40;;;;;;;14.80;84.32;99113.77;106369;1253;70426;-79
2023/06/27 03:56:21;;;;;;;4.70;4.30;;;;;;;14.80;84.04;99112.08;107197;1256;71712;-77
2023/06/27 03:58:48;;;;;;;4.80;4.40;;;;;;;14.90;83.72;99111.27;106834;1256;62492;-78
2023/06/27 04:01:17;;;;;;;5.30;4.20;;;;;;;14.96;82.75;99104.98;107050;1256;61298;-78
2023/06/27 04:03:45;;;;;;;5.70;4.50;;;;;;;14.91;82.71;99098.58;106590;1253;73849;-76
2023/06/27 04:06:12;;;;;;;5.20;4.70;;;;;;;14.86;82.64;99092.93;106644;1258;68995;-78
2023/06/27 04:08:40;;;;;;;5.90;3.90;;;;;;;14.86;82.70;99084.33;105996;1258;74570;-78
2023/06/27 04:11:07;;;;;;;7.50;4.10;;;;;;;14.98;82.74;99080.32;106570;1258;60514;-79
2023/06/27 04:13:35;;;;;;;4.90;4.40;;;;;;;15.10;82.58;99081.80;108357;1253;60996;-80
2023/06/27 04:16:04;;;;;;;4.90;4.10;;;;;;;15.15;82.46;99076.80;109314;1253;72575;-79
2023/06/27 04:18:31;;;;;;;4.30;3.90;;;;;;;15.21;82.38;99074.49;106211;1253;68815;-80
2023/06/27 04:20:59;;;;;;;4.40;4.00;;;;;;;15.27;81.68;99073.20;106013;1258;71425;-79
2023/06/27 04:23:26;;;;;;;5.30;3.90;;;;;;;15.40;81.53;99075.99;105752;1256;226038;-82
2023/06/27 04:28:11;;;;;;;4.70;4.20;;;;;;;15.58;80.64;99078.42;103263;1288;601021;-79
2023/06/27 04:30:39;;;;;;;7.10;4.50;;;;;;;15.61;80.07;99074.32;105218;1266;60371;-79
2023/06/27 04:33:07;;;;;;;4.50;4.10;;;;;;;15.65;79.69;99071.99;105256;1269;59227;-80
2023/06/27 04:35:34;;;;;;;4.70;4.20;;;;;;;15.71;79.40;99068.95;105607;1267;70982;-82
2023/06/27 04:38:04;;;;;;;4.10;3.70;;;;;;;15.79;78.97;99063.33;105493;1261;70402;-82
2023/06/27 04:40:32;;;;;;;4.20;3.70;;;;;;;15.98;78.45;99061.30;105800;1260;73831;-79
2023/06/27 04:43:00;;;;;;;5.50;4.10;;;;;;;16.10;77.69;99064.85;106242;1261;189114;-79
2023/06/27 04:45:27;;;;;;;5.20;4.60;;;;;;;16.19;77.64;99067.35;108922;1260;58832;-80
2023/06/27 04:47:55;;;;;;;4.40;4.00;;;;;;;16.31;77.39;99062.16;106631;1265;70873;-79
2023/06/27 04:50:22;;;;;;;4.60;3.90;;;;;;;16.44;76.93;99055.94;106099;1260;70511;-78
2023/06/27 04:52:50;;;;;;;4.30;3.90;;;;;;;16.54;76.33;99051.15;106475;1253;71487;-78
2023/06/27 04:55:17;;;;;;;4.30;3.20;;;;;;;16.67;75.89;99052.20;106232;1253;61687;-79
2023/06/27 04:57:45;;;;;;;3.70;3.40;;;;;;;16.87;75.47;99050.08;106328;1256;60142;-78
2023/06/27 05:00:13;;;;;;;4.60;4.20;;;;;;;17.05;74.86;99052.54;106319;1250;73019;-81
2023/06/27 05:02:40;;;;;;;3.80;3.50;;;;;;;17.14;74.59;99055.52;106311;1250;69930;-79
2023/06/27 05:05:17;;;;;;;4.30;3.90;;;;;;;17.23;74.02;99056.45;106135;1250;71440;-81
2023/06/27 05:07:44;;;;;;;4.20;3.80;;;;;;;17.30;73.96;99059.12;106549;1251;59669;-82
2023/06/27 05:10:12;;;;;;;5.20;4.80;;;;;;;17.39;73.73;99054.45;106740;1250;60031;-79
2023/06/27 05:12:39;;;;;;;4.20;3.80;;;;;;;17.48;73.21;99057.96;108405;1250;71526;-79
2023/06/27 05:15:08;;;;;;;4.40;4.00;;;;;;;17.54;72.52;99063.59;109043;1250;68892;-78
2023/06/27 05:17:35;;;;;;;5.10;4.00;;;;;;;17.59;72.02;99063.23;107344;1254;73249;-81
2023/06/27 05:20:04;;;;;;;4.80;3.60;;;;;;;17.66;71.94;99064.69;108245;1251;61899;-81
2023/06/27 05:22:31;;;;;;;7.00;4.00;;;;;;;17.78;72.03;99063.65;109034;1250;60382;-80
2023/06/27 05:24:59;;;;;;;6.90;3.70;;;;;;;17.91;71.60;99065.81;107249;1250;71904;-84
2023/06/27 05:27:26;;;;;;;4.80;3.90;;;;;;;18.02;71.46;99063.31;107341;1251;70726;-79
2023/06/27 05:29:54;;;;;;;7.30;3.90;;;;;;;18.09;70.82;99062.32;108132;1251;72583;-86
2023/06/27 05:32:22;;;;;;;3.80;3.50;;;;;;;18.17;70.58;99065.38;109507;1253;59145;-84
2023/06/27 05:34:50;;;;;;;5.80;3.80;;;;;;;18.25;70.03;99061.87;109753;1252;58874;-84
2023/06/27 05:37:17;;;;;;;3.70;3.40;;;;;;;18.34;69.24;99055.17;109536;1252;71779;-82
2023/06/27 05:39:44;;;;;;;3.90;3.30;;;;;;;18.39;68.63;99056.62;109097;1251;69559;-84
2023/06/27 05:42:12;;;;;;;3.40;3.10;;;;;;;18.41;68.19;99056.34;109463;1251;71414;-82
2023/06/27 05:44:39;;;;;;;3.80;3.40;;;;;;;18.40;67.66;99055.31;109747;1251;60904;-84
2023/06/27 05:47:07;;;;;;;3.70;3.20;;;;;;;18.42;67.09;99055.73;108129;1251;59631;-71
2023/06/27 05:49:34;;;;;;;3.30;3.00;;;;;;;18.45;66.85;99058.44;105860;1257;73235;-72
2023/06/27 05:52:02;;;;;;;3.90;3.40;;;;;;;18.47;66.55;99059.43;105970;1251;70349;-72
2023/06/27 05:54:29;;;;;;;3.50;3.20;;;;;;;18.43;66.32;99058.77;106039;1251;72724;-76
2023/06/27 05:56:57;;;;;;;7.80;3.40;;;;;;;18.37;66.45;99057.73;105829;1254;59746;-74
2023/06/27 05:59:24;;;;;;;5.50;3.30;;;;;;;18.32;66.58;99058.23;105865;1257;59656;-74
2023/06/27 06:01:52;;;;;;;4.10;3.40;;;;;;;18.27;66.66;99055.02;106200;1253;74649;-73
2023/06/27 06:04:19;;;;;;;4.50;3.40;;;;;;;18.24;66.23;99059.75;106250;1253;69969;-76
2023/06/27 06:06:46;;;;;;;4.10;3.30;;;;;;;18.22;66.07;99065.52;105936;1253;72658;-72
2023/06/27 06:09:14;;;;;;;4.20;3.30;;;;;;;18.21;66.31;99067.15;107577;1251;60083;-75
2023/06/27 06:11:41;;;;;;;3.70;3.40;;;;;;;18.25;66.15;99058.97;108893;1253;58862;-74
2023/06/27 06:14:09;;;;;;;4.10;3.70;;;;;;;18.31;65.89;99060.20;108638;1251;71577;-73
2023/06/27 06:16:36;;;;;;;3.70;2.90;;;;;;;18.38;66.19;99063.21;109036;1251;71314;-73
2023/06/27 06:19:03;;;;;;;3.20;2.90;;;;;;;18.47;65.19;99059.76;108720;1253;72783;-76
2023/06/27 06:21:31;;;;;;;5.00;3.50;;;;;;;18.53;65.15;99059.89;108449;1253;59712;-75
2023/06/27 06:23:58;;;;;;;3.90;3.60;;;;;;;18.61;65.16;99058.50;108088;1251;60040;-73
2023/06/27 06:26:26;;;;;;;3.40;3.10;;;;;;;18.71;65.11;99057.45;108330;1256;72994;-75
2023/06/27 06:28:53;;;;;;;3.40;3.10;;;;;;;18.82;65.11;99061.45;108304;1251;69777;-75
2023/06/27 06:31:22;;;;;;;4.80;3.80;;;;;;;18.94;64.79;99059.23;108644;1254;71561;-73
2023/06/27 06:33:51;;;;;;;4.80;3.50;;;;;;;19.02;64.80;99048.90;108427;1251;58988;-70
2023/06/27 06:36:19;;;;;;;3.40;3.10;;;;;;;19.12;64.82;99042.71;108272;1252;60016;-74
2023/06/27 06:38:46;;;;;;;5.20;3.10;;;;;;;19.19;64.48;99043.27;107845;1251;70541;-74
2023/06/27 06:41:14;;;;;;;4.10;3.80;;;;;;;19.23;64.05;99045.34;107568;1250;68742;-76
2023/06/27 06:43:41;;;;;;;4.40;3.20;;;;;;;19.24;63.98;99046.01;107848;1251;71443;-72
2023/06/27 06:46:09;;;;;;;3.90;3.40;;;;;;;19.27;63.93;99043.53;108435;1251;59050;-73
2023/06/27 06:48:38;;;;;;;3.90;3.60;;;;;;;19.34;63.45;99043.87;108615;1251;59637;-74
2023/06/27 06:51:05;;;;;;;4.60;3.50;;;;;;;19.39;62.82;99039.44;108683;1256;74049;-73
2023/06/27 06:53:32;;;;;;;3.30;3.00;;;;;;;19.45;62.46;99044.55;108100;1250;70351;-72
2023/06/27 06:56:00;;;;;;;3.70;3.30;;;;;;;19.51;61.83;99048.89;108108;1251;71416;-76
2023/06/27 06:58:27;;;;;;;3.40;3.10;;;;;;;19.55;61.22;99047.58;108353;1254;59614;-75
2023/06/27 07:00:54;;;;;;;3.40;3.10;;;;;;;19.56;61.03;99046.77;108601;1251;59525;-76
2023/06/27 07:03:22;;;;;;;3.50;3.20;;;;;;;19.59;60.91;99050.34;108816;1251;71823;-76
2023/06/27 07:05:50;;;;;;;3.40;2.90;;;;;;;19.63;60.91;99048.84;108701;1250;68722;-75
2023/06/27 07:08:17;;;;;;;3.30;3.00;;;;;;;19.67;60.42;99050.46;108264;1253;71462;-75
2023/06/27 07:10:44;;;;;;;3.30;3.00;;;;;;;19.67;60.34;99047.95;107663;1256;59780;-74
2023/06/27 07:13:12;;;;;;;3.30;2.80;;;;;;;19.68;60.58;99050.65;108418;1251;59627;-77
2023/06/27 07:15:39;;;;;;;3.40;3.10;;;;;;;19.71;60.67;99047.80;109157;1251;71581;-75
2023/06/27 07:18:07;;;;;;;3.50;3.10;;;;;;;19.76;60.96;99043.30;108886;1251;68738;-75
2023/06/27 07:20:34;;;;;;;3.40;3.10;;;;;;;19.83;60.23;99042.23;108875;1253;72817;-77
2023/06/27 07:23:02;;;;;;;4.90;3.70;;;;;;;19.89;59.53;99033.70;108077;1257;59523;-76
2023/06/27 07:25:29;;;;;;;3.30;3.00;;;;;;;19.92;59.01;99028.08;107836;1253;60057;-76
2023/06/27 07:27:57;;;;;;;5.00;3.50;;;;;;;19.93;59.07;99028.91;106450;1251;71730;-75
2023/06/27 07:30:24;;;;;;;3.40;3.10;;;;;;;19.96;59.12;99026.52;106156;1256;69083;-75
2023/06/27 07:32:51;;;;;;;3.10;2.80;;;;;;;19.97;58.77;99031.55;106030;1254;72657;-73
2023/06/27 07:35:19;;;;;;;3.30;3.00;;;;;;;19.96;58.86;99029.29;105746;1251;60112;-74
2023/06/27 07:37:46;;;;;;;3.60;3.10;;;;;;;20.00;58.61;99033.75;106156;1251;59605;-76
2023/06/27 07:40:14;;;;;;;4.70;3.00;;;;;;;20.04;58.55;99038.23;106728;1256;72970;-76
2023/06/27 07:42:41;;;;;;;3.40;3.10;;;;;;;20.06;58.22;99037.95;107585;1256;70409;-75
2023/06/27 07:45:09;;;;;;;3.10;2.90;;;;;;;20.08;58.34;99044.07;107703;1254;73240;-75
2023/06/27 07:47:37;;;;;;;3.70;3.40;;;;;;;20.11;58.25;99040.34;106477;1256;59641;-76
2023/06/27 07:50:05;;;;;;;3.80;3.40;;;;;;;20.17;58.05;99041.66;106490;1256;59534;-76
2023/06/27 07:52:32;;;;;;;3.50;3.20;;;;;;;20.21;58.15;99043.34;106213;1254;75025;-77
2023/06/27 07:55:00;;;;;;;3.60;3.30;;;;;;;20.26;58.02;99035.95;106082;1250;69145;-75
2023/06/27 07:57:27;;;;;;;4.40;3.50;;;;;;;20.29;57.90;99036.27;106137;1252;72677;-75
2023/06/27 07:59:55;;;;;;;4.10;3.00;;;;;;;20.37;58.15;99031.95;106185;1257;59621;-75
2023/06/27 08:02:22;;;;;;;4.20;3.80;;;;;;;20.49;58.23;99029.59;106165;1251;60144;-76
2023/06/27 08:04:50;;;;;;;3.90;3.60;;;;;;;20.64;58.36;99027.04;106190;1251;73034;-77
2023/06/27 08:07:17;;;;;;;3.40;3.10;;;;;;;20.81;57.90;99029.61;106368;1251;69247;-77
2023/06/27 08:09:45;;;;;;;4.10;3.30;;;;;;;20.95;57.57;99024.48;106546;1251;72610;-76
2023/06/27 08:12:12;;;;;;;3.90;3.60;;;;;;;21.05;57.40;99022.48;107384;1251;60079;-73
2023/06/27 08:14:41;;;;;;;5.50;3.60;;;;;;;21.17;57.47;99017.25;109252;1251;60134;-77
2023/06/27 08:17:08;;;;;;;4.10;3.70;;;;;;;21.31;57.03;99015.16;106148;1252;70605;-76
2023/06/27 08:19:36;;;;;;;4.20;3.50;;;;;;;21.42;56.57;99010.41;106015;1251;69930;-76
2023/06/27 08:22:03;;;;;;;3.70;3.40;;;;;;;21.50;56.14;99017.25;106108;1251;71305;-76
2023/06/27 08:24:30;;;;;;;4.00;3.60;;;;;;;21.58;55.75;99019.77;106122;1253;59814;-77
2023/06/27 08:26:58;;;;;;;4.00;3.60;;;;;;;21.59;55.54;99014.89;106063;1256;60216;-76
2023/06/27 08:29:26;;;;;;;4.00;3.40;;;;;;;21.60;55.36;99016.09;105918;1258;73124;-76
2023/06/27 08:31:58;;;;;;;3.60;3.30;;;;;;;21.65;55.53;99015.21;105901;1255;70179;-75
2023/06/27 08:34:26;;;;;;;4.10;3.50;;;;;;;21.73;55.60;99012.78;106014;1253;73243;-74
2023/06/27 08:36:54;;;;;;;5.00;3.70;;;;;;;21.84;55.36;99015.73;105832;1255;60553;-73
2023/06/27 08:39:21;;;;;;;4.80;3.00;;;;;;;21.98;55.05;99015.23;105945;1258;60374;-73
2023/06/27 08:41:50;;;;;;;3.40;3.10;;;;;;;22.15;54.52;99009.80;106723;1253;72553;-75
2023/06/27 08:44:18;;;;;;;3.60;3.30;;;;;;;22.34;54.08;99013.95;108586;1253;68988;-75
2023/06/27 08:46:45;;;;;;;3.60;3.30;;;;;;;22.50;53.13;99006.07;106574;1253;71423;-75
2023/06/27 08:49:17;;;;;;;4.20;3.90;;;;;;;22.60;52.60;99005.72;106133;1255;60378;-74
2023/06/27 08:51:44;;;;;;;3.60;3.30;;;;;;;22.65;52.59;98996.16;106031;1258;60520;-74
2023/06/27 08:54:13;;;;;;;3.40;3.10;;;;;;;22.77;52.51;98997.49;105997;1258;72818;-76
2023/06/27 08:56:40;;;;;;;6.30;3.30;;;;;;;22.94;52.03;98999.33;105980;1258;71537;-78
2023/06/27 08:59:09;;;;;;;3.50;3.20;;;;;;;23.13;51.89;98992.03;106154;1254;71341;-80
2023/06/27 09:01:38;;;;;;;4.90;3.60;;;;;;;23.36;51.48;98987.75;107770;1253;60340;-80
2023/06/27 09:04:06;;;;;;;3.60;3.30;;;;;;;23.57;51.40;98986.02;107757;1253;60429;-79
2023/06/27 09:06:34;;;;;;;5.40;3.60;;;;;;;23.78;52.27;98982.45;107476;1253;71671;-77
2023/06/27 09:09:01;;;;;;;5.40;3.90;;;;;;;23.97;52.90;98983.89;106380;1253;68839;-80
2023/06/27 09:11:29;;;;;;;5.10;3.70;;;;;;;24.19;53.01;98987.23;107870;1253;75337;-79
2023/06/27 09:13:56;;;;;;;5.40;3.90;;;;;;;24.44;53.26;98983.10;108834;1253;59180;-74
2023/06/27 09:16:23;;;;;;;6.10;3.80;;;;;;;24.68;52.55;98981.38;106175;1254;60559;-75
2023/06/27 09:18:51;;;;;;;8.80;4.00;;;;;;;24.86;51.49;98979.87;105949;1258;73912;-76
2023/06/27 09:21:22;;;;;;;4.90;3.60;;;;;;;25.02;50.92;98978.14;106066;1254;69211;-75
2023/06/27 09:23:50;;;;;;;6.20;4.20;;;;;;;25.25;51.18;98977.44;105407;1254;71379;-76
2023/06/27 09:26:18;;;;;;;6.10;4.30;;;;;;;25.58;50.74;98977.63;105879;1256;60971;-77
2023/06/27 09:28:50;;;;;;;4.10;3.70;;;;;;;26.00;50.30;98987.30;106174;1251;60565;-74
2023/06/27 09:31:21;;;;;;;8.10;4.00;;;;;;;26.31;49.85;98989.91;106226;1253;72881;-76
2023/06/27 09:33:48;;;;;;;3.20;2.90;;;;;;;26.62;48.97;98982.13;105982;1253;72345;-76
2023/06/27 09:36:29;;;;;;;5.20;4.00;;;;;;;26.90;47.70;98982.63;106145;1253;74902;-73
2023/06/27 09:39:00;;;;;;;10.60;4.10;;;;;;;27.23;47.37;98984.39;106438;1253;60580;-74
2023/06/27 09:41:45;;;;;;;4.50;3.70;;;;;;;27.70;46.79;98977.31;107985;1251;61099;-82
2023/06/27 09:44:17;;;;;;;3.60;3.30;;;;;;;28.18;44.88;98979.36;109065;1253;72794;-77
2023/06/27 09:46:48;;;;;;;3.50;3.10;;;;;;;28.32;44.69;98978.27;106406;1257;68253;-76
2023/06/27 09:49:16;;;;;;;5.00;3.40;;;;;;;28.43;44.54;98978.48;106411;1255;72863;-79
2023/06/27 09:51:45;;;;;;;5.10;3.60;;;;;;;28.44;45.03;98981.54;106500;1252;60303;-79
2023/06/27 09:54:13;;;;;;;4.00;3.30;;;;;;;28.51;44.90;98983.85;106555;1252;60425;-81
2023/06/27 09:56:47;;;;;;;3.70;3.50;;;;;;;28.76;44.28;98980.88;106156;1257;73274;-78
2023/06/27 09:59:16;;;;;;;3.60;3.10;;;;;;;29.03;43.69;98976.58;106099;1254;70410;-79
2023/06/27 10:01:52;;;;;;;3.60;3.30;;;;;;;29.39;43.75;98975.72;106154;1253;71578;-80
2023/06/27 10:04:20;;;;;;;23.70;5.50;;;;;;;29.75;43.50;98980.84;106288;1254;60421;-80
2023/06/27 10:07:13;;;;;;;6.70;4.00;;;;;;;29.96;42.84;98981.02;106211;1257;60322;-79
2023/06/27 10:09:41;;;;;;;6.50;3.80;;;;;;;29.98;42.80;98985.12;106507;1250;72582;-79
2023/06/27 10:12:09;;;;;;;4.10;3.50;;;;;;;29.97;42.88;98983.73;107750;1250;70765;-80
2023/06/27 10:14:36;;;;;;;4.40;4.00;;;;;;;29.93;43.01;98983.67;109557;1251;71417;-79
2023/06/27 10:17:04;;;;;;;3.70;3.30;;;;;;;29.83;43.02;98984.69;106555;1256;60552;-77
2023/06/27 10:19:35;;;;;;;6.00;3.20;;;;;;;29.78;43.16;98987.31;107002;1251;60419;-79
2023/06/27 10:22:02;;;;;;;4.70;3.40;;;;;;;29.83;42.92;98982.02;107813;1251;74846;-78
2023/06/27 10:24:30;;;;;;;3.70;3.40;;;;;;;30.06;42.74;98983.48;108014;1251;69166;-78
2023/06/27 10:26:57;;;;;;;4.40;3.40;;;;;;;30.37;42.08;98977.81;107435;1252;73846;-81
2023/06/27 10:29:31;;;;;;;3.90;3.60;;;;;;;30.68;41.52;98975.56;106877;1253;60947;-81
2023/06/27 10:31:59;;;;;;;4.60;3.50;;;;;;;31.03;41.29;98977.73;107447;1256;61366;-83
2023/06/27 10:34:28;;;;;;;6.70;3.60;;;;;;;31.36;40.59;98975.13;106541;1258;72620;-80
2023/06/27 10:37:01;;;;;;;3.80;3.30;;;;;;;31.70;40.32;98965.71;106458;1253;69069;-80
2023/06/27 10:39:33;;;;;;;3.00;2.80;;;;;;;32.15;39.76;98967.80;106471;1253;72797;-79
2023/06/27 10:42:02;;;;;;;3.90;3.00;;;;;;;32.59;38.95;98962.88;107382;1251;60398;-79
2023/06/27 10:44:29;;;;;;;3.60;3.30;;;;;;;32.91;38.48;98967.46;109392;1251;60335;-80
2023/06/27 10:47:23;;;;;;;3.80;2.90;;;;;;;33.25;38.04;98962.92;106626;1255;72657;-82
2023/06/27 10:49:57;;;;;;;3.80;3.40;;;;;;;33.72;37.41;98960.66;108048;1251;68891;-83
2023/06/27 10:52:25;;;;;;;4.10;3.20;;;;;;;34.02;36.92;98962.77;108636;1252;62622;-79
2023/06/27 10:55:22;;;;;;;3.40;3.00;;;;;;;34.16;36.17;98964.61;106773;1259;60536;-80
2023/06/27 10:57:51;;;;;;;3.20;3.00;;;;;;;34.02;36.26;98968.17;106168;1252;60437;-77
2023/06/27 11:00:29;;;;;;;4.60;3.40;;;;;;;34.00;35.89;98969.08;106953;1251;72907;-77
2023/06/27 11:02:56;;;;;;;3.30;3.10;;;;;;;34.07;36.40;98968.17;106690;1253;69015;-82
2023/06/27 11:05:45;;;;;;;3.10;2.80;;;;;;;34.37;35.78;98960.50;106797;1254;72070;-80
2023/06/27 11:08:17;;;;;;;3.40;3.10;;;;;;;34.62;35.45;98962.70;106350;1253;60472;-81
2023/06/27 11:10:50;;;;;;;3.10;2.80;;;;;;;34.75;35.34;98961.92;106998;1252;61250;-81
2023/06/27 11:13:21;;;;;;;4.60;3.10;;;;;;;34.81;35.72;98959.73;108339;1251;63732;-81
2023/06/27 11:15:51;;;;;;;3.50;3.10;;;;;;;34.98;35.69;98962.27;108563;1251;60489;-82
2023/06/27 11:18:20;;;;;;;3.70;3.40;;;;;;;35.15;35.30;98962.92;106441;1254;63811;-76
2023/06/27 11:20:48;;;;;;;3.30;3.00;;;;;;;35.29;34.76;98966.30;106123;1257;60536;-76
2023/06/27 11:23:16;;;;;;;6.30;2.90;;;;;;;35.40;34.45;98962.91;106119;1253;60388;-76
2023/06/27 11:25:44;;;;;;;3.40;3.10;;;;;;;35.51;34.18;98961.05;106059;1253;63631;-75
2023/06/27 11:28:15;;;;;;;3.30;3.00;;;;;;;35.61;33.93;98962.58;106144;1251;62232;-76
2023/06/27 11:30:43;;;;;;;3.30;3.00;;;;;;;35.77;33.69;98960.80;106190;1254;63997;-77
2023/06/27 11:33:14;;;;;;;4.00;3.20;;;;;;;35.92;33.29;98961.59;106599;1254;60449;-78
2023/06/27 11:35:41;;;;;;;3.20;2.90;;;;;;;35.96;33.46;98961.36;106177;1252;60504;-78